createdAt,value
2023-02-09T00:01:44.831Z,-6.90
2023-02-09T00:04:17.401Z,-6.80
2023-02-09T00:06:47.666Z,-6.60
2023-02-09T00:09:17.884Z,-6.50
2023-02-09T00:12:00.237Z,-6.50
2023-02-09T00:14:30.587Z,-6.40
2023-02-09T00:17:00.504Z,-6.30
2023-02-09T00:19:33.497Z,-6.20
2023-02-09T00:22:03.679Z,-6.30
2023-02-09T00:24:33.684Z,-6.30
2023-02-09T00:27:03.606Z,-6.30
2023-02-09T00:29:34.947Z,-6.20
2023-02-09T00:32:04.951Z,-6.10
2023-02-09T00:34:38.514Z,-5.50
2023-02-09T00:37:08.509Z,-5.50
2023-02-09T00:39:38.459Z,-5.30
2023-02-09T00:42:11.047Z,-4.90
2023-02-09T00:44:42.617Z,-4.40
2023-02-09T00:47:13.109Z,-4.20
2023-02-09T00:49:46.128Z,-4.10
2023-02-09T00:52:16.064Z,-3.80
2023-02-09T00:54:46.088Z,-3.50
2023-02-09T00:57:16.050Z,-3.00
2023-02-09T00:59:46.013Z,-2.80
2023-02-09T01:02:16.009Z,-2.90
2023-02-09T01:04:48.650Z,-3.00
2023-02-09T01:07:19.293Z,-3.10
2023-02-09T01:09:49.440Z,-3.00
2023-02-09T01:12:19.373Z,-2.90
2023-02-09T01:14:49.397Z,-3.00
2023-02-09T01:17:19.320Z,-3.40
2023-02-09T01:19:54.440Z,-3.60
2023-02-09T01:22:24.460Z,-3.70
2023-02-09T01:24:54.548Z,-3.90
2023-02-09T01:27:24.549Z,-4.30
2023-02-09T01:29:55.661Z,-4.50
2023-02-09T01:32:25.998Z,-4.60
2023-02-09T01:34:58.563Z,-4.50
2023-02-09T01:37:28.917Z,-4.70
2023-02-09T01:39:58.871Z,-4.70
2023-02-09T01:42:28.919Z,-4.40
2023-02-09T01:45:20.103Z,-4.30
2023-02-09T01:47:53.920Z,-4.40
2023-02-09T01:50:27.323Z,-4.60
2023-02-09T01:52:57.725Z,-4.70
2023-02-09T01:55:30.389Z,-4.70
2023-02-09T01:58:03.299Z,-4.80
2023-02-09T02:00:33.380Z,-4.60
2023-02-09T02:03:06.715Z,-4.50
2023-02-09T02:05:42.772Z,-4.50
2023-02-09T02:08:17.161Z,-4.50
2023-02-09T02:10:47.436Z,-4.60
2023-02-09T02:13:17.624Z,-4.60
2023-02-09T02:15:54.552Z,-4.60
2023-02-09T02:18:33.775Z,-4.60
2023-02-09T02:21:36.218Z,-4.60
2023-02-09T02:24:32.445Z,-4.40
2023-02-09T02:27:05.588Z,-4.40
2023-02-09T02:30:03.967Z,-4.40
2023-02-09T02:32:47.985Z,-4.50
2023-02-09T02:35:22.606Z,-4.60
2023-02-09T02:37:59.485Z,-4.70
2023-02-09T02:40:37.884Z,-4.70
2023-02-09T02:43:14.441Z,-4.60
2023-02-09T02:45:47.007Z,-4.50
2023-02-09T02:48:27.597Z,-4.40
2023-02-09T02:51:00.721Z,-4.70
2023-02-09T02:53:36.635Z,-4.70
2023-02-09T02:56:11.179Z,-4.90
2023-02-09T02:58:42.229Z,-5.10
2023-02-09T03:01:14.300Z,-5.20
2023-02-09T03:03:48.225Z,-5.20
2023-02-09T03:06:18.378Z,-5.30
2023-02-09T03:08:52.875Z,-5.30
2023-02-09T03:11:24.728Z,-5.00
2023-02-09T03:14:06.736Z,-4.70
2023-02-09T03:16:42.527Z,-4.80
2023-02-09T03:19:22.822Z,-4.90
2023-02-09T03:21:55.429Z,-4.90
2023-02-09T03:24:38.510Z,-5.00
2023-02-09T03:27:17.071Z,-4.90
2023-02-09T03:29:49.357Z,-5.00
2023-02-09T03:32:20.879Z,-5.30
2023-02-09T03:34:53.492Z,-5.70
2023-02-09T03:37:23.452Z,-5.70
2023-02-09T03:39:53.371Z,-5.80
2023-02-09T03:42:23.323Z,-5.80
2023-02-09T03:44:53.606Z,-5.50
2023-02-09T03:47:23.548Z,-5.30
2023-02-09T03:49:56.115Z,-4.40
2023-02-09T03:52:26.123Z,-4.30
2023-02-09T03:54:56.077Z,-4.30
2023-02-09T03:57:26.062Z,-4.40
2023-02-09T03:59:56.052Z,-3.80
2023-02-09T04:02:26.059Z,-3.60
2023-02-09T04:04:58.855Z,-3.60
2023-02-09T04:07:28.909Z,-3.20
2023-02-09T04:09:58.892Z,-3.30
2023-02-09T04:12:28.972Z,-3.40
2023-02-09T04:14:58.919Z,-3.10
2023-02-09T04:17:28.843Z,-2.60
2023-02-09T04:20:01.743Z,-3.00
2023-02-09T04:22:31.643Z,-3.30
2023-02-09T04:25:01.611Z,-3.20
2023-02-09T04:27:31.671Z,-3.20
2023-02-09T04:30:01.578Z,-3.10
2023-02-09T04:32:32.034Z,-3.10
2023-02-09T04:35:04.597Z,-3.00
2023-02-09T04:37:34.561Z,-3.20
2023-02-09T04:40:06.747Z,-3.60
2023-02-09T04:42:37.616Z,-3.50
2023-02-09T04:45:08.306Z,-3.60
2023-02-09T04:47:38.287Z,-3.60
2023-02-09T04:50:11.595Z,-3.30
2023-02-09T04:52:41.567Z,-3.40
2023-02-09T04:55:11.511Z,-3.70
2023-02-09T04:57:53.790Z,-3.90
2023-02-09T05:00:23.958Z,-4.00
2023-02-09T05:02:53.911Z,-4.00
2023-02-09T05:05:26.486Z,-4.20
2023-02-09T05:07:56.423Z,-4.30
2023-02-09T05:10:26.448Z,-4.20
2023-02-09T05:12:56.367Z,-4.00
2023-02-09T05:15:27.748Z,-4.00
2023-02-09T05:17:57.906Z,-3.80
2023-02-09T05:20:30.415Z,-3.70
2023-02-09T05:23:00.364Z,-3.90
2023-02-09T05:25:30.317Z,-4.00
2023-02-09T05:28:00.359Z,-4.40
2023-02-09T05:30:31.024Z,-3.90
2023-02-09T05:33:01.224Z,-3.70
2023-02-09T05:35:33.767Z,-3.80
2023-02-09T05:38:03.723Z,-3.80
2023-02-09T05:40:33.817Z,-3.90
2023-02-09T05:43:03.771Z,-4.00
2023-02-09T05:45:33.815Z,-4.00
2023-02-09T05:48:04.340Z,-4.00
2023-02-09T05:50:37.632Z,-4.00
2023-02-09T05:53:10.261Z,-4.00
2023-02-09T05:55:40.256Z,-4.30
2023-02-09T05:58:10.252Z,-4.50
2023-02-09T06:00:40.275Z,-4.70
2023-02-09T06:03:10.282Z,-4.80
2023-02-09T06:05:42.865Z,-5.00
2023-02-09T06:08:12.828Z,-5.10
2023-02-09T06:10:42.779Z,-5.20
2023-02-09T06:13:12.750Z,-5.30
2023-02-09T06:15:42.727Z,-5.20
2023-02-09T06:18:12.875Z,-5.20
2023-02-09T06:20:45.796Z,-5.30
2023-02-09T06:23:15.956Z,-5.30
2023-02-09T06:25:45.885Z,-5.40
2023-02-09T06:28:15.846Z,-5.40
2023-02-09T06:30:46.088Z,-5.20
2023-02-09T06:33:16.294Z,-5.30
2023-02-09T06:35:51.438Z,-5.10
2023-02-09T06:38:22.922Z,-5.00
2023-02-09T06:40:52.851Z,-5.20
2023-02-09T06:43:22.809Z,-5.20
2023-02-09T06:45:52.769Z,-5.30
2023-02-09T06:48:22.933Z,-5.30
2023-02-09T06:50:55.696Z,-5.10
2023-02-09T06:53:25.706Z,-4.80
2023-02-09T06:55:55.773Z,-4.50
2023-02-09T06:58:25.710Z,-4.20
2023-02-09T07:00:55.698Z,-4.10
2023-02-09T07:03:25.626Z,-3.80
2023-02-09T07:05:58.179Z,-3.80
2023-02-09T07:08:28.142Z,-3.70
2023-02-09T07:10:58.268Z,-3.60
2023-02-09T07:13:28.177Z,-3.50
2023-02-09T07:15:59.186Z,-3.10
2023-02-09T07:18:29.800Z,-2.90
2023-02-09T07:21:03.787Z,-3.00
2023-02-09T07:23:34.091Z,-2.80
2023-02-09T07:26:08.193Z,-2.80
2023-02-09T07:28:39.214Z,-2.70
2023-02-09T07:31:11.216Z,-2.70
2023-02-09T07:33:41.366Z,-2.70
2023-02-09T07:36:15.633Z,-2.60
2023-02-09T07:38:45.954Z,-2.60
2023-02-09T07:41:18.056Z,-2.60
2023-02-09T07:43:48.267Z,-2.60
2023-02-09T07:46:21.194Z,-2.40
2023-02-09T07:48:51.593Z,-2.40
2023-02-09T07:51:25.787Z,-2.30
2023-02-09T07:53:56.138Z,-2.30
2023-02-09T07:56:26.877Z,-2.30
2023-02-09T07:58:57.659Z,-2.00
2023-02-09T08:01:28.228Z,-1.80
2023-02-09T08:03:58.166Z,-1.80
2023-02-09T08:06:42.039Z,-1.60
2023-02-09T08:09:13.522Z,-1.60
2023-02-09T08:11:46.599Z,-1.30
2023-02-09T08:14:19.666Z,-1.20
2023-02-09T08:16:50.384Z,-0.90
2023-02-09T08:19:23.975Z,-0.60
2023-02-09T08:21:56.579Z,-0.60
2023-02-09T08:24:26.546Z,-0.70
2023-02-09T08:26:56.461Z,-0.80
2023-02-09T08:29:26.479Z,-0.70
2023-02-09T08:31:56.518Z,-0.70
2023-02-09T08:34:26.558Z,-0.50
2023-02-09T08:36:59.075Z,-0.40
2023-02-09T08:39:29.133Z,-0.20
2023-02-09T08:41:59.068Z,-0.20
2023-02-09T08:44:29.105Z,0.10
2023-02-09T08:46:59.131Z,0.20
2023-02-09T08:49:29.253Z,0.30
2023-02-09T08:52:01.816Z,0.10
2023-02-09T08:54:31.756Z,0.20
2023-02-09T08:57:01.769Z,0.30
2023-02-09T08:59:33.125Z,0.30
2023-02-09T09:02:03.068Z,0.60
2023-02-09T09:04:33.199Z,0.40
2023-02-09T09:07:05.771Z,0.60
2023-02-09T09:09:35.809Z,0.70
2023-02-09T09:12:05.787Z,0.70
2023-02-09T09:14:35.987Z,0.80
2023-02-09T09:17:05.887Z,0.90
2023-02-09T09:19:35.830Z,0.90
2023-02-09T09:22:08.326Z,240.60
2023-02-09T09:24:40.766Z,240.60
2023-02-09T09:27:11.135Z,240.60
2023-02-09T09:29:41.566Z,240.60
2023-02-09T09:32:14.093Z,240.60
2023-02-09T09:34:44.680Z,240.60
2023-02-09T09:37:17.272Z,240.60
2023-02-09T09:39:47.205Z,240.60
2023-02-09T09:42:25.312Z,240.60
2023-02-09T09:44:55.978Z,240.60
2023-02-09T09:47:35.476Z,240.60
2023-02-09T09:50:05.333Z,240.60
2023-02-09T09:52:41.066Z,240.60
2023-02-09T09:55:12.386Z,240.60
2023-02-09T09:57:46.844Z,240.60
2023-02-09T10:00:23.581Z,240.60
2023-02-09T10:02:53.627Z,240.60
2023-02-09T10:05:25.582Z,240.60
2023-02-09T10:08:03.014Z,240.60
2023-02-09T10:10:41.081Z,240.60
2023-02-09T10:13:19.183Z,240.60
2023-02-09T10:15:50.963Z,240.60
2023-02-09T10:18:25.541Z,240.60
2023-02-09T10:20:56.973Z,240.60
2023-02-09T10:23:31.272Z,240.60
2023-02-09T10:26:03.060Z,240.60
2023-02-09T10:28:35.590Z,240.60
2023-02-09T10:31:06.757Z,240.60
2023-02-09T10:33:44.217Z,240.60
2023-02-09T10:36:27.187Z,240.60
2023-02-09T10:39:13.282Z,240.60
2023-02-09T10:41:44.433Z,240.60
2023-02-09T10:44:20.801Z,240.60
2023-02-09T10:46:50.969Z,240.60
2023-02-09T10:49:33.053Z,240.60
2023-02-09T10:52:19.733Z,240.60
2023-02-09T10:54:56.551Z,240.60
2023-02-09T10:57:29.207Z,240.60
2023-02-09T11:00:01.557Z,240.60
2023-02-09T11:02:37.508Z,240.60
2023-02-09T11:05:32.107Z,240.60
2023-02-09T11:08:13.150Z,240.60
2023-02-09T11:10:50.809Z,240.60
2023-02-09T11:13:26.412Z,240.60
2023-02-09T11:16:23.477Z,240.60
2023-02-09T11:18:59.985Z,240.60
2023-02-09T11:21:39.054Z,240.60
2023-02-09T11:24:15.414Z,240.60
2023-02-09T11:26:53.425Z,240.60
2023-02-09T11:29:30.404Z,240.60
2023-02-09T11:32:11.764Z,240.60
2023-02-09T11:35:05.241Z,240.60
2023-02-09T11:37:40.848Z,240.60
2023-02-09T11:40:22.744Z,240.60
2023-02-09T11:43:00.602Z,240.60
2023-02-09T11:45:33.781Z,240.60
2023-02-09T11:48:09.383Z,240.60
2023-02-09T11:50:45.163Z,240.60
2023-02-09T11:53:22.951Z,240.60
2023-02-09T11:55:56.901Z,240.60
2023-02-09T11:58:45.271Z,240.60
2023-02-09T12:01:25.411Z,240.60
2023-02-09T12:04:01.836Z,240.60
2023-02-09T12:06:39.085Z,240.60
2023-02-09T12:09:18.972Z,240.60
2023-02-09T12:11:56.051Z,240.60
2023-02-09T12:15:02.827Z,240.60
2023-02-09T12:17:41.316Z,240.60
2023-02-09T12:20:25.702Z,240.60
2023-02-09T12:23:01.161Z,240.60
2023-02-09T12:25:57.637Z,240.60
2023-02-09T12:28:46.832Z,240.60
2023-02-09T12:31:20.487Z,240.60
2023-02-09T12:34:15.415Z,240.60
2023-02-09T12:37:19.441Z,240.60
2023-02-09T12:40:18.498Z,240.60
2023-02-09T12:42:50.082Z,240.60
2023-02-09T12:45:35.427Z,240.60
2023-02-09T12:48:17.656Z,240.60
2023-02-09T12:50:53.205Z,240.60
2023-02-09T12:53:48.326Z,240.60
2023-02-09T12:56:35.653Z,240.60
2023-02-09T12:59:20.686Z,240.60
2023-02-09T13:02:07.211Z,240.60
2023-02-09T13:04:42.256Z,240.60
2023-02-09T13:07:21.073Z,240.60
2023-02-09T13:09:51.969Z,240.60
2023-02-09T13:12:28.378Z,240.60
2023-02-09T13:14:59.048Z,240.60
2023-02-09T13:17:41.949Z,240.60
2023-02-09T13:20:56.787Z,240.60
2023-02-09T13:23:35.807Z,240.60
2023-02-09T13:26:19.894Z,240.60
2023-02-09T13:28:49.871Z,240.60
2023-02-09T13:31:35.688Z,240.60
2023-02-09T13:34:11.453Z,240.60
2023-02-09T13:36:47.473Z,240.60
2023-02-09T13:39:25.692Z,240.60
2023-02-09T13:41:56.753Z,240.60
2023-02-09T13:44:28.069Z,240.60
2023-02-09T13:46:59.346Z,240.60
2023-02-09T13:49:30.701Z,240.60
2023-02-09T13:52:20.019Z,240.60
2023-02-09T13:54:53.019Z,240.60
2023-02-09T13:57:34.614Z,240.60
2023-02-09T14:00:11.886Z,240.60
2023-02-09T14:02:50.861Z,240.60
2023-02-09T14:05:27.653Z,240.60
2023-02-09T14:07:57.723Z,240.60
2023-02-09T14:10:31.229Z,240.60
2023-02-09T14:13:03.043Z,240.60
2023-02-09T14:15:49.634Z,240.60
2023-02-09T14:18:30.215Z,240.60
2023-02-09T14:21:17.601Z,240.60
2023-02-09T14:23:49.352Z,240.60
2023-02-09T14:26:25.820Z,3.50
2023-02-09T14:28:57.958Z,3.20
2023-02-09T14:31:29.210Z,2.90
2023-02-09T14:34:00.014Z,2.70
2023-02-09T14:36:35.440Z,2.80
2023-02-09T14:39:16.748Z,2.80
2023-02-09T14:42:02.463Z,2.70
2023-02-09T14:44:33.101Z,2.60
2023-02-09T14:47:03.970Z,2.70
2023-02-09T14:49:35.345Z,2.60
2023-02-09T14:52:07.301Z,2.80
2023-02-09T14:54:44.564Z,2.40
2023-02-09T14:57:17.194Z,2.30
2023-02-09T14:59:47.250Z,2.10
2023-02-09T15:02:19.742Z,2.00
2023-02-09T15:04:50.247Z,2.10
2023-02-09T15:07:23.801Z,1.80
2023-02-09T15:09:53.761Z,1.80
2023-02-09T15:12:29.861Z,1.60
2023-02-09T15:15:02.166Z,1.40
2023-02-09T15:17:33.581Z,1.20
2023-02-09T15:20:03.546Z,1.00
2023-02-09T15:22:33.663Z,1.00
2023-02-09T15:25:03.651Z,0.80
2023-02-09T15:27:40.134Z,0.90
2023-02-09T15:30:15.178Z,0.70
2023-02-09T15:32:45.167Z,0.60
2023-02-09T15:35:17.116Z,0.40
2023-02-09T15:37:49.340Z,0.40
2023-02-09T15:40:46.706Z,0.30
2023-02-09T15:43:34.354Z,0.00
2023-02-09T15:46:16.786Z,-0.10
2023-02-09T15:48:46.733Z,-0.20
2023-02-09T15:51:17.141Z,-0.20
2023-02-09T15:53:47.541Z,-0.30
2023-02-09T15:56:18.952Z,-0.30
2023-02-09T15:58:54.473Z,-0.50
2023-02-09T16:01:27.226Z,-0.40
2023-02-09T16:04:12.689Z,-0.60
2023-02-09T16:06:43.945Z,-0.60
2023-02-09T16:09:19.969Z,-0.70
2023-02-09T16:11:50.009Z,-0.80
2023-02-09T16:14:23.993Z,-0.80
2023-02-09T16:16:54.241Z,-0.90
2023-02-09T16:19:24.440Z,-0.90
2023-02-09T16:21:57.181Z,-1.00
2023-02-09T16:24:32.988Z,-0.90
2023-02-09T16:27:03.217Z,-1.00
2023-02-09T16:29:35.744Z,-0.70
2023-02-09T16:32:05.694Z,-1.00
2023-02-09T16:34:35.680Z,-1.00
2023-02-09T16:37:05.795Z,-1.00
2023-02-09T16:39:35.796Z,-1.00
2023-02-09T16:42:05.779Z,-0.90
2023-02-09T16:44:38.362Z,-1.00
2023-02-09T16:47:13.476Z,-1.10
2023-02-09T16:49:44.617Z,-1.20
2023-02-09T16:52:20.219Z,-1.20
2023-02-09T16:54:52.022Z,-1.50
2023-02-09T16:57:23.625Z,-1.60
2023-02-09T16:59:56.691Z,-1.80
2023-02-09T17:02:38.571Z,-1.80
2023-02-09T17:05:18.832Z,-1.50
2023-02-09T17:07:54.769Z,-1.70
2023-02-09T17:10:27.109Z,-1.40
2023-02-09T17:12:57.203Z,-1.20
2023-02-09T17:15:32.127Z,-0.90
2023-02-09T17:18:04.836Z,-1.10
2023-02-09T17:20:39.963Z,-1.10
2023-02-09T17:23:09.943Z,-1.00
2023-02-09T17:25:39.966Z,-0.90
2023-02-09T17:28:09.952Z,-1.00
2023-02-09T17:30:43.231Z,-1.00
2023-02-09T17:33:19.476Z,-1.00
2023-02-09T17:36:22.556Z,-0.80
2023-02-09T17:38:41.547Z,-0.80
2023-02-09T17:41:17.055Z,-0.80
2023-02-09T17:43:47.049Z,-0.90
2023-02-09T17:46:21.478Z,-1.00
2023-02-09T17:48:51.888Z,-1.00
2023-02-09T17:51:23.924Z,-0.90
2023-02-09T17:53:53.906Z,-0.90
2023-02-09T17:56:23.852Z,-0.90
2023-02-09T17:58:53.834Z,-0.90
2023-02-09T18:01:29.327Z,-1.00
2023-02-09T18:04:00.265Z,-1.20
2023-02-09T18:06:34.428Z,-1.30
2023-02-09T18:09:04.963Z,-1.50
2023-02-09T18:11:59.904Z,-1.50
2023-02-09T18:14:31.951Z,-1.60
2023-02-09T18:17:04.824Z,-1.50
2023-02-09T18:19:34.835Z,-1.40
2023-02-09T18:22:05.457Z,-1.20
2023-02-09T18:24:36.955Z,-1.20
2023-02-09T18:27:08.098Z,-1.20
2023-02-09T18:29:38.479Z,-1.30
2023-02-09T18:32:13.812Z,-1.20
2023-02-09T18:34:44.014Z,-1.10
2023-02-09T18:37:13.938Z,-1.00
2023-02-09T18:39:46.677Z,-1.00
2023-02-09T18:42:18.126Z,-1.10
2023-02-09T18:44:48.230Z,-1.20
2023-02-09T18:47:21.159Z,-1.10
2023-02-09T18:49:51.104Z,-1.30
2023-02-09T18:52:25.188Z,-1.20
2023-02-09T18:54:56.178Z,-1.30
2023-02-09T18:57:26.123Z,-1.20
2023-02-09T18:59:56.146Z,-1.10
2023-02-09T19:02:28.727Z,-1.20
2023-02-09T19:05:02.544Z,-1.30
2023-02-09T19:07:32.590Z,-1.20
2023-02-09T19:10:02.830Z,-1.10
2023-02-09T19:12:32.803Z,-1.00
2023-02-09T19:15:03.063Z,-1.00
2023-02-09T19:17:35.773Z,-1.10
2023-02-09T19:20:05.788Z,-1.20
2023-02-09T19:22:36.031Z,-1.40
2023-02-09T19:25:06.112Z,-1.30
2023-02-09T19:27:36.192Z,-1.30
2023-02-09T19:30:06.484Z,-1.30
2023-02-09T19:32:39.823Z,-1.30
2023-02-09T19:35:11.206Z,-1.00
2023-02-09T19:37:42.159Z,-1.10
2023-02-09T19:40:21.272Z,-0.70
2023-02-09T19:42:51.720Z,-0.50
2023-02-09T19:45:21.901Z,-0.50
2023-02-09T19:47:54.590Z,-0.20
2023-02-09T19:50:24.514Z,-0.20
2023-02-09T19:52:54.610Z,-0.30
2023-02-09T19:55:24.536Z,-0.50
2023-02-09T19:57:54.481Z,-0.40
2023-02-09T20:00:24.528Z,-0.30
2023-02-09T20:02:57.311Z,-0.40
2023-02-09T20:05:27.574Z,-0.10
2023-02-09T20:07:57.845Z,0.00
2023-02-09T20:10:27.860Z,-0.20
2023-02-09T20:12:57.932Z,-0.20
2023-02-09T20:15:28.209Z,-0.30
2023-02-09T20:18:01.222Z,-0.40
2023-02-09T20:20:31.310Z,-0.60
2023-02-09T20:23:01.256Z,-0.70
2023-02-09T20:25:31.209Z,-0.80
2023-02-09T20:28:01.540Z,-1.10
2023-02-09T20:30:31.592Z,-1.00
2023-02-09T20:33:04.174Z,-1.20
2023-02-09T20:35:34.248Z,-1.40
2023-02-09T20:38:04.267Z,-1.20
2023-02-09T20:40:34.680Z,-1.30
2023-02-09T20:43:17.018Z,-1.60
2023-02-09T20:45:59.310Z,-1.60
2023-02-09T20:48:32.371Z,-1.50
2023-02-09T20:51:04.121Z,-1.40
2023-02-09T20:53:35.074Z,-1.30
2023-02-09T20:56:04.998Z,-1.20
2023-02-09T20:58:34.940Z,-1.20
2023-02-09T21:01:04.975Z,-1.20
2023-02-09T21:03:37.942Z,-1.20
2023-02-09T21:06:09.418Z,-1.10
2023-02-09T21:08:41.465Z,-0.90
2023-02-09T21:11:11.579Z,-1.00
2023-02-09T21:13:41.558Z,-1.10
2023-02-09T21:16:12.260Z,-0.90
2023-02-09T21:18:45.909Z,-0.80
2023-02-09T21:21:19.854Z,-0.80
2023-02-09T21:26:35.451Z,-0.70
2023-02-09T21:29:05.495Z,-0.70
2023-02-09T21:31:35.750Z,-0.70
2023-02-09T21:34:08.333Z,-0.80
2023-02-09T21:36:38.898Z,-0.70
2023-02-09T21:39:08.864Z,-0.70
2023-02-09T21:41:51.223Z,-0.70
2023-02-09T21:44:21.211Z,-0.60
2023-02-09T21:46:51.660Z,-0.60
2023-02-09T21:49:24.721Z,-0.50
2023-02-09T21:51:54.719Z,-0.60
2023-02-09T21:54:25.542Z,-0.60
2023-02-09T21:56:56.436Z,-0.60
2023-02-09T21:59:26.386Z,-0.70
2023-02-09T22:01:56.334Z,-0.70
2023-02-09T22:04:29.025Z,-0.80
2023-02-09T22:06:59.047Z,-0.90
2023-02-09T22:09:29.076Z,-0.90
2023-02-09T22:11:59.032Z,-0.80
2023-02-09T22:14:29.234Z,-0.70
2023-02-09T22:16:59.333Z,-0.70
2023-02-09T22:19:32.014Z,-0.70
2023-02-09T22:22:01.967Z,-0.80
2023-02-09T22:24:34.977Z,-0.80
2023-02-09T22:27:05.268Z,-0.80
2023-02-09T22:29:36.105Z,-0.90
2023-02-09T22:32:06.176Z,-0.80
2023-02-09T22:34:38.952Z,-0.90
2023-02-09T22:37:08.904Z,-0.80
2023-02-09T22:39:38.855Z,-0.80
2023-02-09T22:42:08.989Z,-0.80
2023-02-09T22:44:38.987Z,-1.00
2023-02-09T22:47:09.000Z,-1.20
2023-02-09T22:49:41.766Z,-1.20
2023-02-09T22:52:12.014Z,-1.00
2023-02-09T22:54:41.933Z,-0.90
2023-02-09T22:57:11.956Z,-0.70
2023-02-09T22:59:41.876Z,-0.60
2023-02-09T23:02:12.700Z,-0.60
2023-02-09T23:04:45.315Z,-0.70
2023-02-09T23:07:15.237Z,-0.70
2023-02-09T23:09:45.374Z,-0.70
2023-02-09T23:12:15.454Z,-0.70
2023-02-09T23:14:45.518Z,-0.60
2023-02-09T23:17:15.455Z,-0.50
2023-02-09T23:19:48.149Z,-0.60
2023-02-09T23:22:18.069Z,-0.60
2023-02-09T23:24:47.966Z,-0.70
2023-02-09T23:27:18.434Z,-0.80
2023-02-09T23:29:48.505Z,-0.90
2023-02-09T23:32:18.458Z,-1.10
2023-02-09T23:34:51.048Z,-0.80
2023-02-09T23:37:36.866Z,-0.70
2023-02-09T23:40:08.317Z,-0.70
2023-02-09T23:42:38.274Z,-0.70
2023-02-09T23:45:08.727Z,-0.80
2023-02-09T23:47:38.695Z,-0.80
2023-02-09T23:50:11.841Z,-0.60
2023-02-09T23:52:41.847Z,-0.60
2023-02-09T23:55:12.356Z,-0.50
2023-02-09T23:57:42.337Z,-0.40
